Wetterdaten: aktuell Sonntag, 21.04.2024 18:00
Datum Zeit Temperatur Temp. +5 cm Temp. -10 cm Feuchte A. Luftdruck Regen Wind Richtung Richtung Zeit Sonne UV-I Solarstrahlg Taupunkt Windchill Windben
21.04.2024 18:00 9,1 C 9,4 C 11,1 C 47 % 1023,6 hPa 0,0 l/m 8,6 km/h (2 Bft) O 86 24 min 0,5 UV-I 88 W/m -1,6 C 7,8 C 16,1 km/h (3 Bft)
21.04.2024 17:00 8,8 C 11,1 C 11,1 C 50 % 1023,6 hPa 0,0 l/m 4,8 km/h (1 Bft) O 92 14 min 0,9 UV-I 178 W/m -1,0 C 8,5 C 12,9 km/h (3 Bft)
21.04.2024 16:00 9,1 C 12,8 C 11,1 C 50 % 1023,3 hPa 0,0 l/m 9,7 km/h (2 Bft) S-SO 151 20 min 1,4 UV-I 274 W/m -0,8 C 7,6 C 22,5 km/h (4 Bft)
21.04.2024 15:00 10,6 C 26,7 C 11,1 C 50 % 1023,2 hPa 0,0 l/m 6,5 km/h (2 Bft) O-SO 106 34 min 2,6 UV-I 933 W/m 0,6 C 10,6 C 14,5 km/h (3 Bft)
21.04.2024 14:00 9,0 C 16,7 C 10,6 C 49 % 1023,4 hPa 0,0 l/m 11,0 km/h (2 Bft) O-NO 73 46 min 1,6 UV-I 158 W/m -1,1 C 7,3 C 17,7 km/h (3 Bft)
21.04.2024 13:00 9,6 C 24,4 C 10,6 C 52 % 1023,3 hPa 0,0 l/m 8,8 km/h (2 Bft) O-SO 104 46 min 3,7 UV-I 970 W/m 0,2 C 8,4 C 14,5 km/h (3 Bft)
21.04.2024 12:00 8,2 C 23,3 C 10,0 C 56 % 1023,4 hPa 0,0 l/m 10,4 km/h (2 Bft) S-SO 165 28 min 3,3 UV-I 912 W/m -0,0 C 6,4 C 22,5 km/h (4 Bft)
21.04.2024 11:00 7,0 C 10,6 C 10,0 C 60 % 1023,3 hPa 0,0 l/m 15,1 km/h (3 Bft) SO 134 42 min 1,4 UV-I 313 W/m -0,2 C 4,2 C 29,0 km/h (5 Bft)
21.04.2024 10:00 7,0 C 6,1 C 10,0 C 59 % 1022,7 hPa 0,0 l/m 8,2 km/h (2 Bft) O-SO 122 60 min 1,9 UV-I 613 W/m -0,5 C 5,4 C 17,7 km/h (3 Bft)
21.04.2024 09:00 5,0 C 3,3 C 10,0 C 70 % 1022,5 hPa 0,0 l/m 5,6 km/h (2 Bft) SO 129 60 min 1,1 UV-I 417 W/m -0,0 C 3,9 C 22,5 km/h (4 Bft)
21.04.2024 08:00 3,1 C 1,1 C 10,0 C 84 % 1021,9 hPa 0,0 l/m 10,0 km/h (2 Bft) O-SO 121 0 min 0,6 UV-I 69 W/m 0,7 C 0,4 C 19,3 km/h (3 Bft)
21.04.2024 07:00 2,4 C 0,6 C 10,0 C 88 % 1021,2 hPa 0,0 l/m 6,5 km/h (2 Bft) O-SO 121 0 min 0,0 UV-I 33 W/m 0,6 C 0,6 C 12,9 km/h (3 Bft)
21.04.2024 06:00 2,2 C 0,0 C 10,6 C 88 % 1020,6 hPa 0,0 l/m 5,6 km/h (2 Bft) O-SO 115 0 min 0,0 UV-I 5 W/m 0,4 C 0,7 C 8,0 km/h (2 Bft)
21.04.2024 05:00 2,3 C 0,0 C 10,6 C 88 % 1020,4 hPa 0,0 l/m 4,9 km/h (1 Bft) O-SO 105 0 min 0,0 UV-I 0 W/m 0,5 C 1,1 C 8,0 km/h (2 Bft)
21.04.2024 04:00 2,6 C -1,1 C 10,6 C 87 % 1020,1 hPa 0,0 l/m 2,6 km/h (1 Bft) SO 144 0 min 0,0 UV-I 0 W/m 0,7 C 2,6 C 4,8 km/h (1 Bft)
21.04.2024 03:00 3,5 C 1,7 C 10,6 C 87 % 1020,1 hPa 0,0 l/m 3,8 km/h (1 Bft) O-SO 119 0 min 0,0 UV-I 0 W/m 1,5 C 3,5 C 6,4 km/h (2 Bft)
21.04.2024 02:00 4,2 C 2,2 C 10,6 C 87 % 1020,2 hPa 0,0 l/m 3,1 km/h (1 Bft) O-NO 65 0 min 0,0 UV-I 0 W/m 2,2 C 4,2 C 4,8 km/h (1 Bft)
21.04.2024 01:00 4,6 C 3,9 C 11,1 C 87 % 1020,4 hPa 0,0 l/m 0,7 km/h (0 Bft) N-NW 332 0 min 0,0 UV-I 0 W/m 2,6 C 4,6 C 1,6 km/h (1 Bft)
21.04.2024 00:00 4,6 C 3,9 C 11,1 C 88 % 1020,4 hPa 0,0 l/m 2,0 km/h (1 Bft) N-NW 331 0 min 0,0 UV-I 0 W/m 2,8 C 4,6 C 3,2 km/h (1 Bft)
_ Min-Zeit 06:10 04:20 13:10 15:40 03:24 - 01:04 - - - - - 17:10 06:50 01:04
Minimum _ 2,2 C -1,1 C 10,0 C 43 % 1019,9 hPa - 0,0 km/h (0 Bft) - - - - - -1,8 C -0,6 C 0,0 km/h (0 Bft)
_ Max-Zeit 15:40 15:40 18:00 07:10 16:56 18:00 12:30 - - 13:43 13:24 13:52 00:32 15:38 11:52
Maximum _ 11,3 C 31,1 C 11,1 C 88 % 1023,7 hPa 0,0 l/m 18,9 km/h
O-SO (3 Bft)
- - 3 min 3,7 UV-I 1049 W/m 2,9 C 11,2 C 37,0 km/h
S-SO (5 Bft)
Durchschnitt _ 6,0 C 8,4 C 10,5 C 69 % 1022,0 hPa #0,0 l/m 7,7 km/h (2 Bft) O-SO - #6:14 h 1,9 UV-I 419 W/m 0,3 C 4,8 C 14,2 km/h (3 Bft)